createdAt,value
2018-05-01T00:01:57.234Z,2.70
2018-05-01T00:04:24.684Z,2.50
2018-05-01T00:06:52.143Z,2.80
2018-05-01T00:09:19.612Z,2.53
2018-05-01T00:11:47.064Z,2.80
2018-05-01T00:14:14.539Z,2.80
2018-05-01T00:16:41.988Z,2.50
2018-05-01T00:19:09.465Z,2.77
2018-05-01T00:21:36.924Z,2.10
2018-05-01T00:24:04.374Z,3.10
2018-05-01T00:26:31.844Z,3.43
2018-05-01T00:28:59.394Z,3.33
2018-05-01T00:31:26.793Z,2.90
2018-05-01T00:33:54.249Z,2.60
2018-05-01T00:36:21.733Z,3.03
2018-05-01T00:38:49.195Z,3.10
2018-05-01T00:41:16.673Z,3.03
2018-05-01T00:43:44.130Z,3.28
2018-05-01T00:46:11.581Z,3.67
2018-05-01T00:48:39.052Z,3.58
2018-05-01T00:51:06.500Z,2.53
2018-05-01T00:53:33.973Z,3.70
2018-05-01T00:56:01.428Z,3.83
2018-05-01T00:58:28.925Z,3.50
2018-05-01T01:00:56.385Z,3.07
2018-05-01T01:03:23.851Z,3.10
2018-05-01T01:05:51.318Z,3.30
2018-05-01T01:08:18.784Z,3.53
2018-05-01T01:10:46.259Z,3.90
2018-05-01T01:13:13.721Z,3.17
2018-05-01T01:15:41.196Z,3.73
2018-05-01T01:18:08.659Z,4.03
2018-05-01T01:20:36.144Z,3.47
2018-05-01T01:23:03.600Z,3.30
2018-05-01T01:25:31.068Z,3.30
2018-05-01T01:27:58.520Z,3.28
2018-05-01T01:30:25.983Z,4.03
2018-05-01T01:32:53.459Z,2.40
2018-05-01T01:35:20.387Z,3.23
2018-05-01T01:37:47.351Z,3.07
2018-05-01T01:40:14.279Z,3.07
2018-05-01T01:42:41.223Z,3.83
2018-05-01T01:45:08.204Z,3.23
2018-05-01T01:47:35.124Z,4.23
2018-05-01T01:50:02.080Z,3.83
2018-05-01T01:52:29.004Z,3.97
2018-05-01T01:54:55.943Z,2.70
2018-05-01T01:57:22.861Z,2.60
2018-05-01T01:59:49.799Z,3.17
2018-05-01T02:02:16.747Z,3.05
2018-05-01T02:04:43.664Z,3.67
2018-05-01T02:07:10.607Z,3.37
2018-05-01T02:09:37.524Z,2.95
2018-05-01T02:12:04.441Z,4.03
2018-05-01T02:14:31.372Z,3.33
2018-05-01T02:16:58.291Z,2.63
2018-05-01T02:19:25.266Z,2.10
2018-05-01T02:21:52.175Z,3.50
2018-05-01T02:24:19.422Z,3.27
2018-05-01T02:26:46.360Z,2.53
2018-05-01T02:29:13.279Z,3.07
2018-05-01T02:31:40.226Z,3.00
2018-05-01T02:34:07.161Z,3.10
2018-05-01T02:36:34.092Z,3.87
2018-05-01T02:39:01.042Z,3.20
2018-05-01T02:41:27.961Z,4.00
2018-05-01T02:43:54.908Z,3.72
2018-05-01T02:46:21.840Z,3.17
2018-05-01T02:48:48.765Z,2.90
2018-05-01T02:51:15.703Z,2.80
2018-05-01T02:53:42.633Z,3.27
2018-05-01T02:56:09.573Z,3.77
2018-05-01T02:58:36.575Z,3.30
2018-05-01T03:01:03.527Z,3.70
2018-05-01T03:03:30.448Z,3.28
2018-05-01T03:05:57.420Z,3.10
2018-05-01T03:08:24.343Z,2.43
2018-05-01T03:10:51.261Z,2.50
2018-05-01T03:13:18.205Z,3.00
2018-05-01T03:15:45.117Z,3.60
2018-05-01T03:18:12.048Z,2.47
2018-05-01T03:20:38.966Z,2.77
2018-05-01T03:23:05.899Z,2.93
2018-05-01T03:25:32.815Z,2.90
2018-05-01T03:27:59.762Z,3.50
2018-05-01T03:30:26.686Z,2.87
2018-05-01T03:32:53.604Z,2.92
2018-05-01T03:35:20.543Z,3.73
2018-05-01T03:37:47.475Z,3.50
2018-05-01T03:40:14.415Z,2.57
2018-05-01T03:42:41.332Z,3.00
2018-05-01T03:45:08.278Z,2.50
2018-05-01T03:47:35.203Z,2.60
2018-05-01T03:50:02.169Z,3.15
2018-05-01T03:52:29.092Z,2.87
2018-05-01T03:54:56.020Z,2.50
2018-05-01T03:57:22.960Z,3.50
2018-05-01T03:59:49.883Z,3.20
2018-05-01T04:02:16.887Z,3.93
2018-05-01T04:04:44.656Z,2.67
2018-05-01T04:07:11.608Z,3.53
2018-05-01T04:09:38.536Z,3.10
2018-05-01T04:12:05.479Z,3.63
2018-05-01T04:14:32.389Z,3.60
2018-05-01T04:16:59.331Z,3.50
2018-05-01T04:19:26.250Z,3.20
2018-05-01T04:21:53.181Z,3.12
2018-05-01T04:24:20.120Z,3.58
2018-05-01T04:26:47.046Z,3.30
2018-05-01T04:29:13.988Z,4.30
2018-05-01T04:31:40.900Z,2.97
2018-05-01T04:34:07.833Z,3.20
2018-05-01T04:36:34.760Z,3.33
2018-05-01T04:39:01.709Z,4.50
2018-05-01T04:41:28.646Z,3.30
2018-05-01T04:43:55.551Z,4.10
2018-05-01T04:46:22.499Z,3.65
2018-05-01T04:48:49.411Z,4.03
2018-05-01T04:51:16.344Z,2.70
2018-05-01T04:53:43.274Z,4.40
2018-05-01T04:56:10.222Z,4.83
2018-05-01T04:58:37.153Z,5.62
2018-05-01T05:01:04.376Z,4.30
2018-05-01T05:03:31.295Z,3.67
2018-05-01T05:05:58.224Z,3.70
2018-05-01T05:08:25.170Z,3.60
2018-05-01T05:10:52.086Z,3.22
2018-05-01T05:13:19.019Z,2.67
2018-05-01T05:15:45.942Z,2.58
2018-05-01T05:18:13.191Z,2.50
2018-05-01T05:20:40.121Z,2.67
2018-05-01T05:23:07.068Z,2.57
2018-05-01T05:25:33.986Z,2.97
2018-05-01T05:28:00.911Z,2.40
2018-05-01T05:30:27.851Z,2.95
2018-05-01T05:32:54.784Z,2.33
2018-05-01T05:35:21.731Z,1.97
2018-05-01T05:37:48.643Z,2.20
2018-05-01T05:40:15.581Z,2.90
2018-05-01T05:42:43.094Z,2.20
2018-05-01T05:45:10.003Z,2.13
2018-05-01T05:47:36.928Z,2.03
2018-05-01T05:50:03.853Z,2.07
2018-05-01T05:52:30.788Z,2.20
2018-05-01T05:54:57.708Z,2.10
2018-05-01T05:57:24.651Z,2.70
2018-05-01T05:59:51.581Z,2.00
2018-05-01T06:02:18.544Z,1.83
2018-05-01T06:04:45.461Z,2.13
2018-05-01T06:07:12.403Z,2.10
2018-05-01T06:09:39.345Z,1.87
2018-05-01T06:12:06.270Z,2.47
2018-05-01T06:14:33.294Z,2.12
2018-05-01T06:17:00.216Z,1.90
2018-05-01T06:19:27.156Z,2.47
2018-05-01T06:21:54.167Z,1.87
2018-05-01T06:24:21.029Z,1.97
2018-05-01T06:26:47.944Z,1.80
2018-05-01T06:29:14.884Z,2.23
2018-05-01T06:31:41.811Z,1.87
2018-05-01T06:34:08.743Z,2.33
2018-05-01T06:36:35.671Z,2.60
2018-05-01T06:39:02.591Z,2.67
2018-05-01T06:41:29.625Z,2.47
2018-05-01T06:43:56.558Z,2.03
2018-05-01T06:46:23.677Z,2.50
2018-05-01T06:48:50.602Z,2.10
2018-05-01T06:51:17.537Z,2.07
2018-05-01T06:53:44.748Z,3.33
2018-05-01T06:56:11.675Z,1.70
2018-05-01T06:58:38.649Z,2.90
2018-05-01T07:01:05.571Z,2.47
2018-05-01T07:03:32.517Z,2.53
2018-05-01T07:05:59.439Z,3.07
2018-05-01T07:08:26.365Z,1.80
2018-05-01T07:10:53.299Z,2.07
2018-05-01T07:13:20.225Z,2.00
2018-05-01T07:15:47.242Z,2.70
2018-05-01T07:18:14.108Z,2.70
2018-05-01T07:20:41.039Z,2.63
2018-05-01T07:23:07.960Z,2.10
2018-05-01T07:25:34.881Z,2.53
2018-05-01T07:28:01.818Z,2.60
2018-05-01T07:30:28.741Z,2.93
2018-05-01T07:32:55.690Z,2.60
2018-05-01T07:35:22.604Z,2.30
2018-05-01T07:37:49.855Z,2.10
2018-05-01T07:40:16.775Z,2.00
2018-05-01T07:42:43.721Z,2.50
2018-05-01T07:45:10.689Z,2.47
2018-05-01T07:47:37.603Z,2.10
2018-05-01T07:50:04.540Z,2.03
2018-05-01T07:52:31.466Z,2.27
2018-05-01T07:54:58.382Z,2.43
2018-05-01T07:57:25.309Z,2.00
2018-05-01T07:59:52.228Z,2.10
2018-05-01T08:02:19.183Z,2.30
2018-05-01T08:04:46.104Z,2.90
2018-05-01T08:07:13.020Z,2.70
2018-05-01T08:09:39.951Z,2.00
2018-05-01T08:12:06.944Z,1.53
2018-05-01T08:14:33.813Z,1.50
2018-05-01T08:17:00.728Z,1.30
2018-05-01T08:19:27.653Z,1.73
2018-05-01T08:21:54.596Z,1.35
2018-05-01T08:24:21.554Z,1.70
2018-05-01T08:26:48.480Z,1.12
2018-05-01T08:29:15.400Z,1.27
2018-05-01T08:31:42.360Z,1.03
2018-05-01T08:34:09.276Z,0.93
2018-05-01T08:36:36.223Z,1.10
2018-05-01T08:39:03.139Z,1.50
2018-05-01T08:41:30.055Z,1.20
2018-05-01T08:43:56.996Z,1.00
2018-05-01T08:46:23.916Z,1.57
2018-05-01T08:48:50.848Z,1.55
2018-05-01T08:51:17.763Z,1.07
2018-05-01T08:53:44.717Z,1.20
2018-05-01T08:56:11.636Z,1.47
2018-05-01T08:58:38.555Z,1.20
2018-05-01T09:01:05.503Z,1.60
2018-05-01T09:03:32.424Z,1.40
2018-05-01T09:05:59.356Z,2.00
2018-05-01T09:08:26.271Z,1.50
2018-05-01T09:10:53.195Z,1.30
2018-05-01T09:13:20.128Z,1.30
2018-05-01T09:15:47.065Z,1.15
2018-05-01T09:18:14.045Z,1.43
2018-05-01T09:20:40.948Z,0.97
2018-05-01T09:23:07.907Z,1.17
2018-05-01T09:25:34.822Z,1.30
2018-05-01T09:28:01.765Z,1.80
2018-05-01T09:30:28.689Z,1.67
2018-05-01T09:32:55.641Z,1.30
2018-05-01T09:35:22.660Z,1.20
2018-05-01T09:37:49.500Z,1.03
2018-05-01T09:40:16.460Z,1.43
2018-05-01T09:42:43.442Z,1.00
2018-05-01T09:45:10.323Z,1.30
2018-05-01T09:47:37.350Z,1.10
2018-05-01T09:50:04.444Z,1.03
2018-05-01T09:52:31.900Z,0.83
2018-05-01T09:54:59.409Z,1.10
2018-05-01T09:57:26.896Z,1.20
2018-05-01T09:59:54.354Z,1.02
2018-05-01T10:02:21.824Z,1.10
2018-05-01T10:04:49.276Z,1.03
2018-05-01T10:07:16.765Z,0.93
2018-05-01T10:09:44.235Z,1.40
2018-05-01T10:12:11.736Z,0.80
2018-05-01T10:14:39.167Z,1.20
2018-05-01T10:17:06.629Z,1.20
2018-05-01T10:19:34.116Z,1.10
2018-05-01T10:22:01.574Z,1.25
2018-05-01T10:24:29.050Z,5.13
2018-05-01T10:26:56.506Z,1.33
2018-05-01T10:29:23.959Z,1.10
2018-05-01T10:31:51.428Z,1.20
2018-05-01T10:34:18.884Z,1.40
2018-05-01T10:36:46.360Z,1.97
2018-05-01T10:39:13.827Z,2.03
2018-05-01T10:41:41.296Z,2.17
2018-05-01T10:44:09.020Z,1.20
2018-05-01T10:46:36.423Z,1.37
2018-05-01T10:49:03.915Z,0.87
2018-05-01T10:51:31.376Z,0.90
2018-05-01T10:53:58.863Z,1.20
2018-05-01T10:56:26.324Z,1.23
2018-05-01T10:58:53.811Z,0.93
2018-05-01T11:01:21.264Z,1.13
2018-05-01T11:03:48.739Z,0.90
2018-05-01T11:06:16.257Z,0.90
2018-05-01T11:08:43.712Z,1.50
2018-05-01T11:11:11.556Z,1.62
2018-05-01T11:13:39.013Z,1.27
2018-05-01T11:16:06.488Z,0.90
2018-05-01T11:18:33.948Z,1.30
2018-05-01T11:21:01.437Z,3.00
2018-05-01T11:23:28.892Z,1.43
2018-05-01T11:25:56.375Z,1.40
2018-05-01T11:28:23.846Z,1.33
2018-05-01T11:30:51.324Z,1.10
2018-05-01T11:33:18.800Z,1.00
2018-05-01T11:35:46.254Z,1.10
2018-05-01T11:38:13.723Z,1.17
2018-05-01T11:40:41.184Z,0.90
2018-05-01T11:43:08.649Z,1.00
2018-05-01T11:45:36.129Z,1.37
2018-05-01T11:48:03.631Z,0.93
2018-05-01T11:50:31.081Z,1.10
2018-05-01T11:52:58.672Z,1.20
2018-05-01T11:55:26.168Z,0.93
2018-05-01T11:57:53.624Z,0.87
2018-05-01T12:00:21.131Z,0.90
2018-05-01T12:02:48.587Z,2.70
2018-05-01T12:05:16.061Z,1.00
2018-05-01T12:07:43.538Z,1.10
2018-05-01T12:10:10.979Z,1.10
2018-05-01T12:12:38.908Z,0.87
2018-05-01T12:15:06.360Z,1.30
2018-05-01T12:17:33.832Z,1.00
2018-05-01T12:20:01.290Z,1.10
2018-05-01T12:22:28.761Z,1.50
2018-05-01T12:24:56.224Z,1.30
2018-05-01T12:27:24.300Z,1.30
2018-05-01T12:29:51.764Z,1.03
2018-05-01T12:32:19.228Z,1.00
2018-05-01T12:34:46.699Z,1.53
2018-05-01T12:37:14.160Z,1.10
2018-05-01T12:39:41.729Z,1.00
2018-05-01T12:42:09.451Z,0.90
2018-05-01T12:44:37.214Z,1.00
2018-05-01T12:47:04.857Z,1.33
2018-05-01T12:49:32.352Z,0.97
2018-05-01T12:51:59.808Z,1.10
2018-05-01T12:54:27.319Z,1.03
2018-05-01T12:56:54.839Z,1.47
2018-05-01T12:59:22.404Z,1.83
2018-05-01T13:01:49.937Z,1.13
2018-05-01T13:04:17.408Z,1.00
2018-05-01T13:06:45.236Z,0.90
2018-05-01T13:09:13.003Z,1.27
2018-05-01T13:11:40.491Z,1.00
2018-05-01T13:14:07.945Z,1.00
2018-05-01T13:16:35.408Z,1.10
2018-05-01T13:19:02.883Z,1.00
2018-05-01T13:21:30.349Z,2.43
2018-05-01T13:23:57.845Z,1.20
2018-05-01T13:26:25.303Z,1.17
2018-05-01T13:28:52.784Z,1.20
2018-05-01T13:31:20.249Z,1.77
2018-05-01T13:33:47.738Z,1.02
2018-05-01T13:36:15.204Z,1.47
2018-05-01T13:38:42.679Z,0.97
2018-05-01T13:41:10.149Z,0.93
2018-05-01T13:43:37.603Z,1.20
2018-05-01T13:46:05.076Z,1.00
2018-05-01T13:48:32.536Z,1.00
2018-05-01T13:51:00.438Z,1.47
2018-05-01T13:53:27.916Z,1.60
2018-05-01T13:55:55.380Z,1.30
2018-05-01T13:58:22.846Z,1.17
2018-05-01T14:00:50.305Z,1.50
2018-05-01T14:03:18.803Z,1.43
2018-05-01T14:05:46.403Z,1.20
2018-05-01T14:08:13.960Z,2.77
2018-05-01T14:10:41.421Z,1.70
2018-05-01T14:13:08.952Z,1.00
2018-05-01T14:15:36.390Z,1.17
2018-05-01T14:18:03.875Z,1.02
2018-05-01T14:20:31.507Z,1.40
2018-05-01T14:22:59.210Z,1.60
2018-05-01T14:25:26.813Z,1.40
2018-05-01T14:27:54.161Z,1.60
2018-05-01T14:30:21.647Z,1.20
2018-05-01T14:32:49.642Z,1.55
2018-05-01T14:35:17.164Z,1.07
2018-05-01T14:37:44.616Z,1.67
2018-05-01T14:40:12.069Z,1.27
2018-05-01T14:42:39.548Z,1.23
2018-05-01T14:45:07.032Z,1.13
2018-05-01T14:47:34.517Z,1.20
2018-05-01T14:50:02.017Z,1.20
2018-05-01T14:52:29.496Z,1.73
2018-05-01T14:54:56.959Z,1.27
2018-05-01T14:57:24.454Z,1.00
2018-05-01T14:59:51.923Z,1.37
2018-05-01T15:02:19.400Z,1.23
2018-05-01T15:04:46.872Z,1.30
2018-05-01T15:07:14.327Z,1.27
2018-05-01T15:09:41.795Z,0.90
2018-05-01T15:12:09.263Z,1.20
2018-05-01T15:14:36.741Z,1.10
2018-05-01T15:17:04.196Z,1.50
2018-05-01T15:19:31.663Z,1.23
2018-05-01T15:21:59.149Z,1.07
2018-05-01T15:24:26.599Z,1.33
2018-05-01T15:26:54.067Z,1.27
2018-05-01T15:29:21.537Z,1.30
2018-05-01T15:31:49.009Z,1.47
2018-05-01T15:34:16.468Z,2.13
2018-05-01T15:36:43.959Z,1.08
2018-05-01T15:39:11.412Z,1.45
2018-05-01T15:41:38.873Z,1.50
2018-05-01T15:44:06.409Z,1.07
2018-05-01T15:46:33.868Z,1.93
2018-05-01T15:49:01.331Z,1.10
2018-05-01T15:51:28.786Z,2.70
2018-05-01T15:53:56.277Z,3.23
2018-05-01T15:56:23.744Z,1.30
2018-05-01T15:58:51.209Z,1.20
2018-05-01T16:01:18.903Z,1.10
2018-05-01T16:03:46.693Z,1.20
2018-05-01T16:06:14.172Z,0.90
2018-05-01T16:08:41.629Z,1.27
2018-05-01T16:11:09.115Z,0.93
2018-05-01T16:13:36.571Z,1.23
2018-05-01T16:16:04.079Z,1.10
2018-05-01T16:18:31.549Z,2.03
2018-05-01T16:20:59.003Z,1.20
2018-05-01T16:23:26.552Z,1.40
2018-05-01T16:25:54.422Z,1.20
2018-05-01T16:28:21.891Z,1.10
2018-05-01T16:30:49.346Z,2.20
2018-05-01T16:33:16.935Z,0.83
2018-05-01T16:35:44.393Z,1.00
2018-05-01T16:38:11.871Z,1.33
2018-05-01T16:40:39.331Z,1.37
2018-05-01T16:43:06.794Z,0.90
2018-05-01T16:45:34.505Z,0.90
2018-05-01T16:48:02.004Z,0.90
2018-05-01T16:50:29.503Z,1.20
2018-05-01T16:52:56.956Z,1.47
2018-05-01T16:55:24.432Z,1.60
2018-05-01T16:57:51.883Z,1.13
2018-05-01T17:00:19.508Z,1.08
2018-05-01T17:02:47.012Z,1.43
2018-05-01T17:05:14.675Z,1.43
2018-05-01T17:07:42.151Z,1.17
2018-05-01T17:10:09.991Z,1.20
2018-05-01T17:12:37.471Z,1.00
2018-05-01T17:15:04.920Z,0.80
2018-05-01T17:17:32.395Z,1.33
2018-05-01T17:19:59.840Z,1.50
2018-05-01T17:22:27.444Z,1.00
2018-05-01T17:24:55.296Z,1.30
2018-05-01T17:27:22.789Z,1.20
2018-05-01T17:29:50.657Z,1.27
2018-05-01T17:32:18.255Z,1.20
2018-05-01T17:34:46.064Z,1.37
2018-05-01T17:37:13.881Z,1.00
2018-05-01T17:39:41.344Z,0.90
2018-05-01T17:42:09.098Z,1.20
2018-05-01T17:44:37.352Z,0.90
2018-05-01T17:47:05.259Z,1.20
2018-05-01T17:49:33.081Z,1.90
2018-05-01T17:52:01.069Z,1.13
2018-05-01T17:54:28.587Z,1.40
2018-05-01T17:56:56.840Z,0.90
2018-05-01T17:59:25.237Z,3.03
2018-05-01T18:01:53.205Z,1.60
2018-05-01T18:04:20.720Z,2.10
2018-05-01T18:06:48.205Z,2.10
2018-05-01T18:09:15.660Z,1.30
2018-05-01T18:11:43.758Z,1.50
2018-05-01T18:14:11.237Z,1.50
2018-05-01T18:16:38.723Z,1.20
2018-05-01T18:19:06.252Z,1.48
2018-05-01T18:21:33.715Z,4.60
2018-05-01T18:24:01.179Z,1.80
2018-05-01T18:26:28.639Z,3.50
2018-05-01T18:28:56.129Z,2.10
2018-05-01T18:31:23.615Z,6.27
2018-05-01T18:33:51.080Z,4.50
2018-05-01T18:36:18.611Z,2.10
2018-05-01T18:38:46.105Z,1.40
2018-05-01T18:41:13.584Z,1.40
2018-05-01T18:43:41.054Z,1.30
2018-05-01T18:46:08.535Z,1.50
2018-05-01T18:48:36.050Z,1.20
2018-05-01T18:51:03.529Z,1.70
2018-05-01T18:53:31.227Z,1.30
2018-05-01T18:55:58.703Z,1.40
2018-05-01T18:58:26.155Z,1.30
2018-05-01T19:00:53.634Z,1.10
2018-05-01T19:03:21.108Z,1.47
2018-05-01T19:05:48.609Z,1.77
2018-05-01T19:08:16.064Z,2.30
2018-05-01T19:10:43.521Z,1.60
2018-05-01T19:13:11.093Z,1.10
2018-05-01T19:15:38.669Z,1.30
2018-05-01T19:18:06.100Z,1.20
2018-05-01T19:20:33.570Z,1.60
2018-05-01T19:23:01.034Z,1.77
2018-05-01T19:25:28.691Z,1.77
2018-05-01T19:27:56.947Z,1.40
2018-05-01T19:30:24.775Z,2.75
2018-05-01T19:32:52.474Z,2.00
2018-05-01T19:35:19.927Z,2.87
2018-05-01T19:37:47.408Z,2.00
2018-05-01T19:40:14.864Z,1.43
2018-05-01T19:42:42.351Z,3.70
2018-05-01T19:45:09.861Z,3.00
2018-05-01T19:47:37.425Z,1.33
2018-05-01T19:50:04.932Z,1.60
2018-05-01T19:52:32.401Z,1.37
2018-05-01T19:54:59.881Z,2.13
2018-05-01T19:57:27.340Z,1.60
2018-05-01T19:59:54.845Z,1.50
2018-05-01T20:02:22.445Z,2.30
2018-05-01T20:04:49.914Z,2.00
2018-05-01T20:07:17.428Z,1.62
2018-05-01T20:09:44.913Z,2.03
2018-05-01T20:12:12.372Z,1.60
2018-05-01T20:14:39.844Z,1.77
2018-05-01T20:17:07.367Z,3.37
2018-05-01T20:19:35.107Z,5.80
2018-05-01T20:22:03.628Z,2.35
2018-05-01T20:24:31.084Z,2.70
2018-05-01T20:26:58.553Z,2.93
2018-05-01T20:29:26.205Z,1.60
2018-05-01T20:31:53.695Z,1.50
2018-05-01T20:34:21.160Z,1.55
2018-05-01T20:36:48.716Z,1.33
2018-05-01T20:39:16.211Z,1.75
2018-05-01T20:41:43.687Z,1.70
2018-05-01T20:44:11.162Z,2.03
2018-05-01T20:46:38.833Z,2.17
2018-05-01T20:49:06.346Z,1.80
2018-05-01T20:51:33.811Z,1.33
2018-05-01T20:54:01.284Z,1.40
2018-05-01T20:56:28.744Z,1.13
2018-05-01T20:58:56.223Z,1.60
2018-05-01T21:01:23.708Z,1.50
2018-05-01T21:03:51.171Z,1.50
2018-05-01T21:06:18.667Z,1.80
2018-05-01T21:08:46.432Z,1.73
2018-05-01T21:11:13.916Z,1.62
2018-05-01T21:13:41.392Z,1.97
2018-05-01T21:16:08.852Z,1.30
2018-05-01T21:18:37.192Z,1.73
2018-05-01T21:21:04.655Z,1.73
2018-05-01T21:23:32.108Z,2.17
2018-05-01T21:25:59.577Z,2.00
2018-05-01T21:28:27.025Z,2.73
2018-05-01T21:30:54.503Z,3.47
2018-05-01T21:33:21.959Z,2.07
2018-05-01T21:35:49.423Z,1.60
2018-05-01T21:38:16.903Z,2.27
2018-05-01T21:40:44.359Z,3.57
2018-05-01T21:43:11.820Z,3.00
2018-05-01T21:45:39.292Z,1.77
2018-05-01T21:48:06.769Z,2.80
2018-05-01T21:50:34.230Z,2.83
2018-05-01T21:53:01.693Z,2.23
2018-05-01T21:55:29.176Z,1.90
2018-05-01T21:57:57.459Z,6.40
2018-05-01T22:00:24.927Z,3.72
2018-05-01T22:02:52.381Z,2.00
2018-05-01T22:05:19.835Z,3.37
2018-05-01T22:07:47.300Z,1.77
2018-05-01T22:10:14.769Z,1.47
2018-05-01T22:12:42.235Z,2.20
2018-05-01T22:15:09.960Z,1.87
2018-05-01T22:17:37.416Z,1.63
2018-05-01T22:20:04.884Z,1.43
2018-05-01T22:22:32.348Z,1.93
2018-05-01T22:24:59.850Z,1.90
2018-05-01T22:27:27.312Z,2.00
2018-05-01T22:29:55.132Z,1.87
2018-05-01T22:32:22.603Z,1.87
2018-05-01T22:34:50.048Z,2.23
2018-05-01T22:37:18.812Z,2.40
2018-05-01T22:39:46.267Z,2.00
2018-05-01T22:42:13.723Z,1.83
2018-05-01T22:44:41.192Z,2.13
2018-05-01T22:47:08.639Z,2.40
2018-05-01T22:49:36.112Z,2.37
2018-05-01T22:52:03.575Z,2.33
2018-05-01T22:54:31.065Z,1.75
2018-05-01T22:56:58.533Z,2.67
2018-05-01T22:59:25.998Z,3.10
2018-05-01T23:01:53.482Z,2.40
2018-05-01T23:04:20.944Z,2.23
2018-05-01T23:06:48.416Z,2.40
2018-05-01T23:09:15.879Z,2.00
2018-05-01T23:11:43.351Z,2.47
2018-05-01T23:14:10.809Z,2.00
2018-05-01T23:16:38.276Z,2.08
2018-05-01T23:19:05.758Z,3.07
2018-05-01T23:21:33.227Z,2.40
2018-05-01T23:24:00.719Z,3.00
2018-05-01T23:26:28.960Z,2.75
2018-05-01T23:28:56.404Z,2.33
2018-05-01T23:31:23.884Z,2.23
2018-05-01T23:33:51.345Z,2.53
2018-05-01T23:36:19.272Z,2.37
2018-05-01T23:38:46.724Z,2.77
2018-05-01T23:41:14.177Z,2.70
2018-05-01T23:43:41.659Z,3.62
2018-05-01T23:46:09.116Z,3.07
2018-05-01T23:48:36.594Z,3.20
2018-05-01T23:51:04.043Z,3.93
2018-05-01T23:53:31.916Z,3.92
2018-05-01T23:55:59.405Z,2.90
2018-05-01T23:58:26.870Z,3.90
